createdAt,value
2023-05-18T00:00:00.505Z,2.72
2023-05-18T00:05:05.202Z,2.17
2023-05-18T00:10:09.183Z,2.63
2023-05-18T00:15:12.481Z,2.30
2023-05-18T00:20:18.012Z,2.45
2023-05-18T00:25:21.212Z,2.63
2023-05-18T00:30:25.606Z,3.28
2023-05-18T00:35:30.387Z,2.45
2023-05-18T00:40:33.838Z,2.85
2023-05-18T00:45:37.120Z,2.33
2023-05-18T00:50:41.860Z,2.08
2023-05-18T00:55:44.987Z,2.72
2023-05-18T01:00:48.182Z,2.70
2023-05-18T01:05:55.835Z,2.90
2023-05-18T01:11:08.926Z,2.30
2023-05-18T01:16:14.153Z,2.20
2023-05-18T01:21:26.317Z,2.35
2023-05-18T01:26:32.888Z,3.15
2023-05-18T01:31:37.432Z,2.63
2023-05-18T01:36:40.716Z,2.63
2023-05-18T01:41:48.682Z,2.30
2023-05-18T01:46:55.470Z,2.20
2023-05-18T01:51:59.751Z,2.55
2023-05-18T01:57:05.147Z,2.53
2023-05-18T02:02:08.551Z,2.40
2023-05-18T02:07:12.700Z,3.10
2023-05-18T02:12:17.923Z,2.63
2023-05-18T02:17:22.147Z,2.63
2023-05-18T02:22:26.201Z,2.97
2023-05-18T02:27:30.742Z,3.28
2023-05-18T02:32:38.639Z,2.95
2023-05-18T02:37:44.232Z,3.00
2023-05-18T02:42:48.908Z,2.67
2023-05-18T02:47:52.198Z,2.92
2023-05-18T02:52:55.954Z,3.00
2023-05-18T02:58:02.450Z,3.58
2023-05-18T03:03:28.509Z,3.00
2023-05-18T03:08:32.186Z,3.05
2023-05-18T03:13:36.911Z,3.03
2023-05-18T03:18:40.241Z,2.95
2023-05-18T03:23:43.646Z,2.97
2023-05-18T03:28:48.320Z,3.67
2023-05-18T03:33:51.824Z,3.38
2023-05-18T03:38:55.351Z,2.38
2023-05-18T03:44:00.291Z,2.92
2023-05-18T03:49:07.734Z,3.25
2023-05-18T03:54:15.531Z,3.38
2023-05-18T03:59:20.036Z,3.30
2023-05-18T04:04:23.693Z,3.25
2023-05-18T04:09:28.099Z,3.15
2023-05-18T04:14:34.127Z,3.70
2023-05-18T04:19:38.840Z,3.10
2023-05-18T04:24:42.556Z,3.28
2023-05-18T04:29:49.245Z,3.20
2023-05-18T04:34:52.524Z,2.90
2023-05-18T04:39:55.888Z,2.97
2023-05-18T04:45:00.463Z,3.80
2023-05-18T04:50:06.196Z,2.90
2023-05-18T04:55:10.908Z,2.58
2023-05-18T05:00:16.525Z,2.95
2023-05-18T05:05:20.098Z,2.88
2023-05-18T05:10:23.425Z,3.33
2023-05-18T05:15:28.226Z,2.40
2023-05-18T05:20:31.517Z,2.97
2023-05-18T05:25:34.811Z,2.67
2023-05-18T05:30:39.448Z,2.58
2023-05-18T05:35:42.785Z,2.92
2023-05-18T05:40:46.140Z,2.70
2023-05-18T05:45:50.827Z,2.45
2023-05-18T05:50:54.732Z,2.80
2023-05-18T05:55:58.129Z,2.40
2023-05-18T06:01:02.856Z,2.92
2023-05-18T06:06:06.302Z,2.45
2023-05-18T06:11:11.392Z,2.78
2023-05-18T06:16:17.253Z,2.30
2023-05-18T06:21:20.823Z,2.72
2023-05-18T06:26:24.403Z,3.00
2023-05-18T06:31:44.219Z,3.25
2023-05-18T06:36:53.383Z,2.10
2023-05-18T06:41:56.632Z,2.38
2023-05-18T06:47:04.477Z,2.72
2023-05-18T06:52:08.850Z,2.58
2023-05-18T06:57:12.470Z,2.28
2023-05-18T07:02:17.337Z,2.13
2023-05-18T07:07:21.503Z,2.78
2023-05-18T07:12:26.138Z,3.38
2023-05-18T07:17:30.869Z,2.10
2023-05-18T07:22:34.036Z,2.72
2023-05-18T07:27:37.200Z,2.35
2023-05-18T07:32:45.483Z,2.60
2023-05-18T07:37:48.984Z,2.47
2023-05-18T07:42:52.200Z,2.22
2023-05-18T07:47:57.705Z,2.85
2023-05-18T07:53:01.077Z,2.20
2023-05-18T07:58:04.772Z,1.95
2023-05-18T08:03:09.418Z,2.20
2023-05-18T08:08:15.399Z,2.20
2023-05-18T08:13:18.717Z,2.00
2023-05-18T08:18:23.587Z,2.65
2023-05-18T08:23:26.683Z,2.10
2023-05-18T08:28:29.856Z,2.47
2023-05-18T08:33:34.424Z,2.55
2023-05-18T08:38:37.596Z,2.63
2023-05-18T08:43:43.515Z,2.20
2023-05-18T08:48:48.377Z,2.00
2023-05-18T08:53:53.229Z,2.45
2023-05-18T08:58:57.665Z,2.25
2023-05-18T09:04:02.592Z,2.45
2023-05-18T09:09:06.712Z,2.60
2023-05-18T09:14:10.468Z,2.30
2023-05-18T09:19:15.180Z,2.60
2023-05-18T09:24:19.383Z,2.70
2023-05-18T09:29:24.366Z,2.83
2023-05-18T09:34:39.985Z,2.03
2023-05-18T09:39:43.522Z,2.72
2023-05-18T09:44:46.691Z,2.55
2023-05-18T09:49:51.232Z,2.90
2023-05-18T09:54:58.978Z,2.33
2023-05-18T10:00:07.098Z,2.80
2023-05-18T10:05:21.233Z,2.17
2023-05-18T10:10:25.219Z,2.42
2023-05-18T10:15:28.383Z,2.25
2023-05-18T10:20:33.489Z,3.42
2023-05-18T10:25:37.146Z,2.67
2023-05-18T10:30:41.796Z,2.17
2023-05-18T10:35:48.895Z,2.15
2023-05-18T10:40:53.085Z,2.45
2023-05-18T10:45:57.214Z,2.22
2023-05-18T10:51:05.555Z,2.22
2023-05-18T10:56:09.003Z,2.38
2023-05-18T11:01:13.101Z,3.15
2023-05-18T11:06:24.619Z,2.92
2023-05-18T11:11:30.047Z,2.03
2023-05-18T11:16:34.270Z,2.58
2023-05-18T11:21:54.420Z,2.95
2023-05-18T11:26:58.818Z,2.50
2023-05-18T11:32:02.624Z,2.30
2023-05-18T11:37:10.131Z,2.10
2023-05-18T11:42:14.617Z,2.60
2023-05-18T11:47:19.289Z,2.35
2023-05-18T11:52:24.544Z,2.67
2023-05-18T11:57:28.397Z,2.90
2023-05-18T12:02:32.535Z,2.63
2023-05-18T12:07:37.548Z,2.80
2023-05-18T12:12:40.846Z,2.05
2023-05-18T12:17:45.118Z,2.78
2023-05-18T12:22:50.404Z,3.45
2023-05-18T12:27:54.685Z,2.70
2023-05-18T12:32:58.519Z,2.85
2023-05-18T12:38:03.312Z,3.75
2023-05-18T12:43:06.527Z,2.40
2023-05-18T12:48:10.807Z,2.45
2023-05-18T12:53:15.851Z,2.60
2023-05-18T12:58:21.320Z,2.90
2023-05-18T13:03:24.635Z,2.80
2023-05-18T13:08:29.287Z,2.90
2023-05-18T13:13:32.468Z,2.35
2023-05-18T13:18:35.840Z,3.30
2023-05-18T13:23:40.496Z,2.47
2023-05-18T13:28:43.715Z,3.03
2023-05-18T13:33:47.023Z,3.10
2023-05-18T13:38:52.394Z,2.97
2023-05-18T13:43:55.730Z,3.33
2023-05-18T13:48:58.892Z,2.80
2023-05-18T13:54:03.742Z,3.13
2023-05-18T13:59:06.881Z,2.92
2023-05-18T14:04:10.039Z,2.92
2023-05-18T14:09:14.522Z,3.25
2023-05-18T14:14:17.852Z,3.40
2023-05-18T14:19:21.120Z,3.30
2023-05-18T14:24:25.708Z,3.10
2023-05-18T14:29:28.894Z,3.00
2023-05-18T14:34:32.119Z,2.88
2023-05-18T14:39:37.845Z,3.40
2023-05-18T14:44:40.989Z,3.75
2023-05-18T14:49:44.171Z,4.13
2023-05-18T14:54:48.922Z,3.58
2023-05-18T14:59:52.116Z,3.85
2023-05-18T15:04:55.245Z,3.42
2023-05-18T15:09:59.704Z,4.00
2023-05-18T15:15:02.930Z,3.30
2023-05-18T15:20:06.630Z,3.22
2023-05-18T15:25:11.320Z,3.05
2023-05-18T15:30:14.549Z,3.75
2023-05-18T15:35:17.890Z,3.40
2023-05-18T15:40:22.460Z,3.38
2023-05-18T15:45:25.587Z,3.78
2023-05-18T15:50:28.907Z,2.97
2023-05-18T15:55:33.534Z,3.08
2023-05-18T16:00:38.297Z,3.17
2023-05-18T16:05:41.502Z,3.83
2023-05-18T16:10:46.002Z,3.55
2023-05-18T16:15:49.180Z,3.38
2023-05-18T16:20:52.279Z,3.13
2023-05-18T16:25:56.827Z,3.05
2023-05-18T16:31:00.017Z,3.20
2023-05-18T16:36:03.361Z,2.90
2023-05-18T16:41:07.965Z,3.00
2023-05-18T16:46:11.219Z,2.90
2023-05-18T16:51:14.554Z,3.25
2023-05-18T16:56:22.133Z,3.25
2023-05-18T17:01:28.615Z,4.63
2023-05-18T17:06:32.340Z,3.15
2023-05-18T17:11:36.892Z,3.10
2023-05-18T17:16:41.014Z,3.03
2023-05-18T17:21:44.180Z,3.30
2023-05-18T17:26:50.561Z,2.55
2023-05-18T17:31:53.792Z,6.05
2023-05-18T17:36:57.269Z,3.92
2023-05-18T17:42:01.905Z,3.88
2023-05-18T17:47:05.322Z,3.63
2023-05-18T17:52:08.606Z,3.20
2023-05-18T17:57:13.162Z,3.42
2023-05-18T18:02:16.602Z,3.38
2023-05-18T18:07:19.822Z,3.75
2023-05-18T18:12:24.490Z,3.17
2023-05-18T18:17:28.240Z,3.30
2023-05-18T18:22:32.612Z,4.00
2023-05-18T18:27:38.940Z,3.45
2023-05-18T18:32:42.141Z,5.13
2023-05-18T18:37:45.894Z,3.40
2023-05-18T18:42:50.405Z,3.80
2023-05-18T18:47:53.607Z,3.80
2023-05-18T18:52:57.106Z,4.18
2023-05-18T18:58:01.693Z,3.03
2023-05-18T19:03:05.158Z,3.83
2023-05-18T19:08:08.391Z,4.38
2023-05-18T19:13:12.873Z,4.13
2023-05-18T19:18:16.096Z,4.70
2023-05-18T19:23:19.433Z,4.38
2023-05-18T19:28:23.929Z,3.47
2023-05-18T19:33:27.045Z,4.13
2023-05-18T19:38:30.168Z,3.47
2023-05-18T19:43:34.732Z,3.22
2023-05-18T19:48:37.915Z,3.85
2023-05-18T19:53:43.126Z,4.43
2023-05-18T19:58:47.668Z,3.85
2023-05-18T20:03:51.163Z,4.07
2023-05-18T20:08:54.467Z,4.57
2023-05-18T20:13:59.026Z,3.78
2023-05-18T20:19:03.416Z,4.25
2023-05-18T20:24:06.786Z,3.83
2023-05-18T20:29:11.428Z,3.92
2023-05-18T20:34:14.540Z,3.72
2023-05-18T20:39:17.728Z,3.60
2023-05-18T20:44:23.745Z,4.10
2023-05-18T20:49:26.966Z,3.95
2023-05-18T20:54:30.131Z,3.88
2023-05-18T20:59:34.743Z,3.85
2023-05-18T21:04:37.962Z,3.83
2023-05-18T21:09:41.120Z,4.28
2023-05-18T21:14:45.749Z,4.53
2023-05-18T21:19:49.505Z,4.57
2023-05-18T21:24:52.658Z,3.88
2023-05-18T21:29:57.161Z,3.88
2023-05-18T21:35:00.306Z,3.70
2023-05-18T21:40:03.706Z,4.07
2023-05-18T21:45:09.033Z,3.50
2023-05-18T21:50:12.608Z,3.28
2023-05-18T21:55:15.789Z,3.35
2023-05-18T22:00:20.821Z,3.40
2023-05-18T22:05:25.543Z,3.35
2023-05-18T22:10:30.717Z,3.58
2023-05-18T22:15:37.206Z,3.35
2023-05-18T22:20:40.564Z,3.15
2023-05-18T22:25:43.735Z,3.58
2023-05-18T22:30:48.293Z,4.05
2023-05-18T22:35:51.444Z,3.53
2023-05-18T22:40:54.553Z,3.47
2023-05-18T22:45:59.202Z,3.72
2023-05-18T22:51:04.210Z,4.15
2023-05-18T22:56:08.016Z,3.47
2023-05-18T23:01:12.517Z,3.70
2023-05-18T23:06:15.822Z,3.70
2023-05-18T23:11:19.915Z,3.45
2023-05-18T23:16:26.651Z,3.83
2023-05-18T23:21:31.032Z,4.05
2023-05-18T23:26:34.883Z,4.07
2023-05-18T23:31:39.470Z,4.50
2023-05-18T23:36:44.032Z,3.88
2023-05-18T23:41:47.396Z,3.95
2023-05-18T23:46:52.309Z,4.38
2023-05-18T23:51:55.694Z,4.30
2023-05-18T23:56:59.750Z,4.68
